sensor_id;sensor_type;location;lat;lon;timestamp;P1;durP1;ratioP1;P2;durP2;ratioP2
19543;SDS011;9917;51.256;7.152;2023-08-21T00:00:54;4.75;;;2.15;;
19543;SDS011;9917;51.256;7.152;2023-08-21T00:03:20;4.47;;;2.42;;
19543;SDS011;9917;51.256;7.152;2023-08-21T00:05:45;6.25;;;1.77;;
19543;SDS011;9917;51.256;7.152;2023-08-21T00:08:14;4.28;;;1.95;;
19543;SDS011;9917;51.256;7.152;2023-08-21T00:10:40;7.60;;;2.10;;
19543;SDS011;9917;51.256;7.152;2023-08-21T00:13:06;5.70;;;1.98;;
19543;SDS011;9917;51.256;7.152;2023-08-21T00:15:32;6.43;;;2.00;;
19543;SDS011;9917;51.256;7.152;2023-08-21T00:17:59;5.30;;;2.03;;
19543;SDS011;9917;51.256;7.152;2023-08-21T00:20:25;5.50;;;2.13;;
19543;SDS011;9917;51.256;7.152;2023-08-21T00:22:53;4.88;;;2.20;;
19543;SDS011;9917;51.256;7.152;2023-08-21T00:25:20;5.53;;;1.98;;
19543;SDS011;9917;51.256;7.152;2023-08-21T00:27:46;3.88;;;2.20;;
19543;SDS011;9917;51.256;7.152;2023-08-21T00:30:12;4.68;;;2.40;;
19543;SDS011;9917;51.256;7.152;2023-08-21T00:32:38;6.00;;;1.95;;
19543;SDS011;9917;51.256;7.152;2023-08-21T00:35:06;3.75;;;2.05;;
19543;SDS011;9917;51.256;7.152;2023-08-21T00:37:33;6.55;;;2.45;;
19543;SDS011;9917;51.256;7.152;2023-08-21T00:39:59;7.70;;;2.50;;
19543;SDS011;9917;51.256;7.152;2023-08-21T00:42:25;5.43;;;2.00;;
19543;SDS011;9917;51.256;7.152;2023-08-21T00:44:51;6.93;;;2.00;;
19543;SDS011;9917;51.256;7.152;2023-08-21T00:47:17;7.97;;;2.33;;
19543;SDS011;9917;51.256;7.152;2023-08-21T00:49:43;5.05;;;2.58;;
19543;SDS011;9917;51.256;7.152;2023-08-21T00:52:10;14.73;;;4.65;;
19543;SDS011;9917;51.256;7.152;2023-08-21T00:54:37;4.45;;;2.40;;
19543;SDS011;9917;51.256;7.152;2023-08-21T00:57:03;5.35;;;2.30;;
19543;SDS011;9917;51.256;7.152;2023-08-21T00:59:29;6.43;;;2.38;;
19543;SDS011;9917;51.256;7.152;2023-08-21T01:01:55;5.95;;;2.63;;
19543;SDS011;9917;51.256;7.152;2023-08-21T01:04:21;6.43;;;2.30;;
19543;SDS011;9917;51.256;7.152;2023-08-21T01:06:47;7.68;;;2.40;;
19543;SDS011;9917;51.256;7.152;2023-08-21T01:09:17;6.68;;;2.20;;
19543;SDS011;9917;51.256;7.152;2023-08-21T01:11:49;6.22;;;2.08;;
19543;SDS011;9917;51.256;7.152;2023-08-21T01:14:22;5.47;;;2.10;;
19543;SDS011;9917;51.256;7.152;2023-08-21T01:16:54;8.02;;;2.65;;
19543;SDS011;9917;51.256;7.152;2023-08-21T01:19:25;6.05;;;2.75;;
19543;SDS011;9917;51.256;7.152;2023-08-21T01:21:55;7.38;;;3.08;;
19543;SDS011;9917;51.256;7.152;2023-08-21T01:24:23;7.65;;;2.60;;
19543;SDS011;9917;51.256;7.152;2023-08-21T01:26:48;5.70;;;2.20;;
19543;SDS011;9917;51.256;7.152;2023-08-21T01:29:14;8.75;;;2.70;;
19543;SDS011;9917;51.256;7.152;2023-08-21T01:31:40;5.20;;;2.38;;
19543;SDS011;9917;51.256;7.152;2023-08-21T01:34:12;4.95;;;2.22;;
19543;SDS011;9917;51.256;7.152;2023-08-21T01:36:39;5.47;;;2.45;;
19543;SDS011;9917;51.256;7.152;2023-08-21T01:39:05;6.35;;;2.45;;
19543;SDS011;9917;51.256;7.152;2023-08-21T01:41:33;4.10;;;2.30;;
19543;SDS011;9917;51.256;7.152;2023-08-21T01:43:58;5.47;;;2.13;;
19543;SDS011;9917;51.256;7.152;2023-08-21T01:46:24;3.97;;;2.10;;
19543;SDS011;9917;51.256;7.152;2023-08-21T01:48:50;6.38;;;2.40;;
19543;SDS011;9917;51.256;7.152;2023-08-21T01:51:16;5.13;;;1.92;;
19543;SDS011;9917;51.256;7.152;2023-08-21T01:53:42;6.93;;;2.90;;
19543;SDS011;9917;51.256;7.152;2023-08-21T01:56:08;5.47;;;2.53;;
19543;SDS011;9917;51.256;7.152;2023-08-21T01:58:35;5.35;;;2.40;;
19543;SDS011;9917;51.256;7.152;2023-08-21T02:01:01;7.70;;;2.40;;
19543;SDS011;9917;51.256;7.152;2023-08-21T02:03:27;3.80;;;2.67;;
19543;SDS011;9917;51.256;7.152;2023-08-21T02:05:55;6.63;;;2.38;;
19543;SDS011;9917;51.256;7.152;2023-08-21T02:08:21;7.97;;;2.05;;
19543;SDS011;9917;51.256;7.152;2023-08-21T02:10:48;3.47;;;2.28;;
19543;SDS011;9917;51.256;7.152;2023-08-21T02:13:14;5.75;;;2.45;;
19543;SDS011;9917;51.256;7.152;2023-08-21T02:15:41;4.82;;;2.17;;
19543;SDS011;9917;51.256;7.152;2023-08-21T02:18:07;5.57;;;2.22;;
19543;SDS011;9917;51.256;7.152;2023-08-21T02:20:33;4.38;;;2.25;;
19543;SDS011;9917;51.256;7.152;2023-08-21T02:22:59;7.63;;;2.33;;
19543;SDS011;9917;51.256;7.152;2023-08-21T02:25:25;6.43;;;2.22;;
19543;SDS011;9917;51.256;7.152;2023-08-21T02:27:51;4.95;;;2.20;;
19543;SDS011;9917;51.256;7.152;2023-08-21T02:30:20;5.85;;;2.65;;
19543;SDS011;9917;51.256;7.152;2023-08-21T02:32:48;7.57;;;2.47;;
19543;SDS011;9917;51.256;7.152;2023-08-21T02:35:13;3.67;;;2.20;;
19543;SDS011;9917;51.256;7.152;2023-08-21T02:37:41;5.07;;;2.60;;
19543;SDS011;9917;51.256;7.152;2023-08-21T02:40:07;7.53;;;2.60;;
19543;SDS011;9917;51.256;7.152;2023-08-21T02:42:33;8.75;;;2.80;;
19543;SDS011;9917;51.256;7.152;2023-08-21T02:44:59;5.57;;;2.83;;
19543;SDS011;9917;51.256;7.152;2023-08-21T02:47:25;3.88;;;2.15;;
19543;SDS011;9917;51.256;7.152;2023-08-21T02:49:53;6.10;;;2.60;;
19543;SDS011;9917;51.256;7.152;2023-08-21T02:52:18;5.28;;;2.47;;
19543;SDS011;9917;51.256;7.152;2023-08-21T02:54:44;4.53;;;2.85;;
19543;SDS011;9917;51.256;7.152;2023-08-21T02:57:10;7.40;;;2.50;;
19543;SDS011;9917;51.256;7.152;2023-08-21T02:59:36;5.63;;;2.53;;
19543;SDS011;9917;51.256;7.152;2023-08-21T03:02:02;5.97;;;2.70;;
19543;SDS011;9917;51.256;7.152;2023-08-21T03:04:28;4.60;;;2.47;;
19543;SDS011;9917;51.256;7.152;2023-08-21T03:06:55;4.38;;;2.75;;
19543;SDS011;9917;51.256;7.152;2023-08-21T03:09:21;5.70;;;3.15;;
19543;SDS011;9917;51.256;7.152;2023-08-21T03:11:47;7.40;;;3.58;;
19543;SDS011;9917;51.256;7.152;2023-08-21T03:14:13;5.35;;;3.10;;
19543;SDS011;9917;51.256;7.152;2023-08-21T03:16:39;8.27;;;3.42;;
19543;SDS011;9917;51.256;7.152;2023-08-21T03:19:05;6.95;;;3.35;;
19543;SDS011;9917;51.256;7.152;2023-08-21T03:21:30;5.60;;;2.92;;
19543;SDS011;9917;51.256;7.152;2023-08-21T03:23:58;5.35;;;2.97;;
19543;SDS011;9917;51.256;7.152;2023-08-21T03:26:24;9.25;;;3.70;;
19543;SDS011;9917;51.256;7.152;2023-08-21T03:28:50;7.93;;;3.28;;
19543;SDS011;9917;51.256;7.152;2023-08-21T03:31:16;6.80;;;3.03;;
19543;SDS011;9917;51.256;7.152;2023-08-21T03:33:42;6.55;;;3.42;;
19543;SDS011;9917;51.256;7.152;2023-08-21T03:36:08;7.80;;;3.22;;
19543;SDS011;9917;51.256;7.152;2023-08-21T03:38:34;5.60;;;2.88;;
19543;SDS011;9917;51.256;7.152;2023-08-21T03:41:01;7.35;;;3.10;;
19543;SDS011;9917;51.256;7.152;2023-08-21T03:43:27;6.18;;;3.40;;
19543;SDS011;9917;51.256;7.152;2023-08-21T03:45:53;6.63;;;3.00;;
19543;SDS011;9917;51.256;7.152;2023-08-21T03:48:19;6.72;;;3.00;;
19543;SDS011;9917;51.256;7.152;2023-08-21T03:50:45;5.20;;;3.20;;
19543;SDS011;9917;51.256;7.152;2023-08-21T03:53:11;8.38;;;3.10;;
19543;SDS011;9917;51.256;7.152;2023-08-21T03:55:36;7.95;;;3.80;;
19543;SDS011;9917;51.256;7.152;2023-08-21T03:58:04;10.27;;;2.92;;
19543;SDS011;9917;51.256;7.152;2023-08-21T04:00:30;7.13;;;3.30;;
19543;SDS011;9917;51.256;7.152;2023-08-21T04:02:57;5.78;;;2.85;;
19543;SDS011;9917;51.256;7.152;2023-08-21T04:05:23;4.25;;;2.97;;
19543;SDS011;9917;51.256;7.152;2023-08-21T04:07:49;5.47;;;3.03;;
19543;SDS011;9917;51.256;7.152;2023-08-21T04:10:15;9.38;;;3.30;;
19543;SDS011;9917;51.256;7.152;2023-08-21T04:12:41;5.63;;;3.30;;
19543;SDS011;9917;51.256;7.152;2023-08-21T04:15:09;7.00;;;3.30;;
19543;SDS011;9917;51.256;7.152;2023-08-21T04:17:35;6.75;;;3.35;;
19543;SDS011;9917;51.256;7.152;2023-08-21T04:20:01;9.32;;;3.28;;
19543;SDS011;9917;51.256;7.152;2023-08-21T04:22:26;5.90;;;3.13;;
19543;SDS011;9917;51.256;7.152;2023-08-21T04:24:52;9.50;;;3.38;;
19543;SDS011;9917;51.256;7.152;2023-08-21T04:27:18;5.82;;;2.95;;
19543;SDS011;9917;51.256;7.152;2023-08-21T04:29:44;5.45;;;3.20;;
19543;SDS011;9917;51.256;7.152;2023-08-21T04:32:11;4.65;;;3.00;;
19543;SDS011;9917;51.256;7.152;2023-08-21T04:34:37;6.10;;;3.00;;
19543;SDS011;9917;51.256;7.152;2023-08-21T04:37:03;4.47;;;3.15;;
19543;SDS011;9917;51.256;7.152;2023-08-21T04:39:29;7.15;;;2.90;;
19543;SDS011;9917;51.256;7.152;2023-08-21T04:41:55;8.60;;;3.15;;
19543;SDS011;9917;51.256;7.152;2023-08-21T04:44:21;8.27;;;3.40;;
19543;SDS011;9917;51.256;7.152;2023-08-21T04:46:47;9.38;;;3.33;;
19543;SDS011;9917;51.256;7.152;2023-08-21T04:49:15;5.55;;;3.45;;
19543;SDS011;9917;51.256;7.152;2023-08-21T04:51:40;7.60;;;3.10;;
19543;SDS011;9917;51.256;7.152;2023-08-21T04:54:06;7.55;;;3.50;;
19543;SDS011;9917;51.256;7.152;2023-08-21T04:56:32;11.35;;;3.17;;
19543;SDS011;9917;51.256;7.152;2023-08-21T04:58:58;8.43;;;3.40;;
19543;SDS011;9917;51.256;7.152;2023-08-21T05:01:24;5.90;;;3.40;;
19543;SDS011;9917;51.256;7.152;2023-08-21T05:03:50;5.78;;;3.22;;
19543;SDS011;9917;51.256;7.152;2023-08-21T05:06:17;6.85;;;3.72;;
19543;SDS011;9917;51.256;7.152;2023-08-21T05:08:43;9.15;;;3.70;;
19543;SDS011;9917;51.256;7.152;2023-08-21T05:11:09;6.20;;;3.35;;
19543;SDS011;9917;51.256;7.152;2023-08-21T05:13:35;6.15;;;3.08;;
19543;SDS011;9917;51.256;7.152;2023-08-21T05:16:01;6.65;;;3.92;;
19543;SDS011;9917;51.256;7.152;2023-08-21T05:18:27;6.93;;;4.03;;
19543;SDS011;9917;51.256;7.152;2023-08-21T05:20:53;6.50;;;3.63;;
19543;SDS011;9917;51.256;7.152;2023-08-21T05:23:21;12.20;;;3.92;;
19543;SDS011;9917;51.256;7.152;2023-08-21T05:25:48;8.60;;;3.58;;
19543;SDS011;9917;51.256;7.152;2023-08-21T05:28:14;7.68;;;4.18;;
19543;SDS011;9917;51.256;7.152;2023-08-21T05:30:40;11.82;;;4.07;;
19543;SDS011;9917;51.256;7.152;2023-08-21T05:33:06;7.95;;;3.63;;
19543;SDS011;9917;51.256;7.152;2023-08-21T05:35:32;8.00;;;3.80;;
19543;SDS011;9917;51.256;7.152;2023-08-21T05:37:58;8.73;;;4.72;;
19543;SDS011;9917;51.256;7.152;2023-08-21T05:43:48;9.95;;;3.92;;
19543;SDS011;9917;51.256;7.152;2023-08-21T05:46:44;6.32;;;3.42;;
19543;SDS011;9917;51.256;7.152;2023-08-21T05:49:10;10.57;;;3.65;;
19543;SDS011;9917;51.256;7.152;2023-08-21T05:51:36;9.57;;;3.50;;
19543;SDS011;9917;51.256;7.152;2023-08-21T05:54:02;7.53;;;3.58;;
19543;SDS011;9917;51.256;7.152;2023-08-21T05:56:28;7.32;;;3.90;;
19543;SDS011;9917;51.256;7.152;2023-08-21T05:58:55;7.20;;;3.83;;
19543;SDS011;9917;51.256;7.152;2023-08-21T06:01:20;7.85;;;4.07;;
19543;SDS011;9917;51.256;7.152;2023-08-21T06:03:46;5.97;;;3.92;;
19543;SDS011;9917;51.256;7.152;2023-08-21T06:06:12;11.88;;;4.20;;
19543;SDS011;9917;51.256;7.152;2023-08-21T06:08:38;9.40;;;4.15;;
19543;SDS011;9917;51.256;7.152;2023-08-21T06:11:04;8.02;;;3.72;;
19543;SDS011;9917;51.256;7.152;2023-08-21T06:13:30;7.40;;;3.88;;
19543;SDS011;9917;51.256;7.152;2023-08-21T06:15:58;10.93;;;4.93;;
19543;SDS011;9917;51.256;7.152;2023-08-21T06:18:23;6.88;;;3.60;;
19543;SDS011;9917;51.256;7.152;2023-08-21T06:20:49;6.28;;;3.67;;
19543;SDS011;9917;51.256;7.152;2023-08-21T06:23:15;8.02;;;3.45;;
19543;SDS011;9917;51.256;7.152;2023-08-21T06:25:41;11.68;;;4.38;;
19543;SDS011;9917;51.256;7.152;2023-08-21T06:28:07;8.30;;;4.30;;
19543;SDS011;9917;51.256;7.152;2023-08-21T06:30:33;7.45;;;3.58;;
19543;SDS011;9917;51.256;7.152;2023-08-21T06:33:00;14.63;;;4.35;;
19543;SDS011;9917;51.256;7.152;2023-08-21T06:35:26;12.98;;;4.30;;
19543;SDS011;9917;51.256;7.152;2023-08-21T06:37:52;8.75;;;3.53;;
19543;SDS011;9917;51.256;7.152;2023-08-21T06:40:18;5.57;;;3.20;;
19543;SDS011;9917;51.256;7.152;2023-08-21T06:42:44;8.27;;;4.43;;
19543;SDS011;9917;51.256;7.152;2023-08-21T06:45:10;9.93;;;4.13;;
19543;SDS011;9917;51.256;7.152;2023-08-21T06:47:36;11.93;;;4.00;;
19543;SDS011;9917;51.256;7.152;2023-08-21T06:50:03;8.05;;;3.85;;
19543;SDS011;9917;51.256;7.152;2023-08-21T06:52:30;15.90;;;4.55;;
19543;SDS011;9917;51.256;7.152;2023-08-21T06:54:56;11.73;;;3.63;;
19543;SDS011;9917;51.256;7.152;2023-08-21T06:57:22;8.65;;;3.25;;
19543;SDS011;9917;51.256;7.152;2023-08-21T06:59:48;8.60;;;3.67;;
19543;SDS011;9917;51.256;7.152;2023-08-21T07:02:14;10.45;;;4.38;;
19543;SDS011;9917;51.256;7.152;2023-08-21T07:04:40;7.43;;;3.20;;
19543;SDS011;9917;51.256;7.152;2023-08-21T07:07:07;6.90;;;3.05;;
19543;SDS011;9917;51.256;7.152;2023-08-21T07:09:33;8.57;;;4.00;;
19543;SDS011;9917;51.256;7.152;2023-08-21T07:11:59;6.05;;;3.28;;
19543;SDS011;9917;51.256;7.152;2023-08-21T07:14:25;6.13;;;2.95;;
19543;SDS011;9917;51.256;7.152;2023-08-21T07:16:51;9.27;;;3.60;;
19543;SDS011;9917;51.256;7.152;2023-08-21T07:19:17;8.38;;;3.55;;
19543;SDS011;9917;51.256;7.152;2023-08-21T07:21:43;8.40;;;2.80;;
19543;SDS011;9917;51.256;7.152;2023-08-21T07:24:10;6.57;;;3.72;;
19543;SDS011;9917;51.256;7.152;2023-08-21T07:26:36;4.65;;;2.80;;
19543;SDS011;9917;51.256;7.152;2023-08-21T07:29:02;10.65;;;3.40;;
19543;SDS011;9917;51.256;7.152;2023-08-21T07:31:28;4.85;;;3.08;;
19543;SDS011;9917;51.256;7.152;2023-08-21T07:33:54;10.88;;;3.85;;
19543;SDS011;9917;51.256;7.152;2023-08-21T07:36:20;12.02;;;3.42;;
19543;SDS011;9917;51.256;7.152;2023-08-21T07:38:46;8.85;;;3.45;;
19543;SDS011;9917;51.256;7.152;2023-08-21T07:41:13;8.85;;;3.28;;
19543;SDS011;9917;51.256;7.152;2023-08-21T07:43:39;10.68;;;3.70;;
19543;SDS011;9917;51.256;7.152;2023-08-21T07:46:07;7.03;;;3.70;;
19543;SDS011;9917;51.256;7.152;2023-08-21T07:48:36;10.63;;;4.68;;
19543;SDS011;9917;51.256;7.152;2023-08-21T07:51:01;9.88;;;4.10;;
19543;SDS011;9917;51.256;7.152;2023-08-21T07:53:27;7.78;;;3.60;;
19543;SDS011;9917;51.256;7.152;2023-08-21T07:55:53;7.88;;;3.92;;
19543;SDS011;9917;51.256;7.152;2023-08-21T07:58:21;8.93;;;5.20;;
19543;SDS011;9917;51.256;7.152;2023-08-21T08:00:46;10.65;;;4.38;;
19543;SDS011;9917;51.256;7.152;2023-08-21T08:03:12;7.85;;;3.53;;
19543;SDS011;9917;51.256;7.152;2023-08-21T08:05:38;7.50;;;3.30;;
19543;SDS011;9917;51.256;7.152;2023-08-21T08:08:05;7.22;;;2.75;;
19543;SDS011;9917;51.256;7.152;2023-08-21T08:10:30;14.77;;;4.03;;
19543;SDS011;9917;51.256;7.152;2023-08-21T08:12:56;5.72;;;3.22;;
19543;SDS011;9917;51.256;7.152;2023-08-21T08:15:23;10.43;;;3.75;;
19543;SDS011;9917;51.256;7.152;2023-08-21T08:17:49;9.38;;;3.28;;
19543;SDS011;9917;51.256;7.152;2023-08-21T08:20:15;5.05;;;2.40;;
19543;SDS011;9917;51.256;7.152;2023-08-21T08:22:41;5.43;;;3.00;;
19543;SDS011;9917;51.256;7.152;2023-08-21T08:25:07;4.47;;;2.78;;
19543;SDS011;9917;51.256;7.152;2023-08-21T08:27:33;16.10;;;5.50;;
19543;SDS011;9917;51.256;7.152;2023-08-21T08:29:59;9.68;;;3.67;;
19543;SDS011;9917;51.256;7.152;2023-08-21T08:32:26;11.95;;;3.92;;
19543;SDS011;9917;51.256;7.152;2023-08-21T08:34:52;8.85;;;3.85;;
19543;SDS011;9917;51.256;7.152;2023-08-21T08:37:18;15.13;;;4.82;;
19543;SDS011;9917;51.256;7.152;2023-08-21T08:39:45;13.07;;;5.22;;
19543;SDS011;9917;51.256;7.152;2023-08-21T08:42:11;11.35;;;5.38;;
19543;SDS011;9917;51.256;7.152;2023-08-21T08:44:37;10.20;;;5.05;;
19543;SDS011;9917;51.256;7.152;2023-08-21T08:47:04;8.68;;;4.20;;
19543;SDS011;9917;51.256;7.152;2023-08-21T08:49:31;9.27;;;4.15;;
19543;SDS011;9917;51.256;7.152;2023-08-21T08:51:57;10.50;;;4.03;;
19543;SDS011;9917;51.256;7.152;2023-08-21T08:54:24;8.30;;;3.55;;
19543;SDS011;9917;51.256;7.152;2023-08-21T08:56:51;9.40;;;4.03;;
19543;SDS011;9917;51.256;7.152;2023-08-21T08:59:17;7.60;;;4.10;;
19543;SDS011;9917;51.256;7.152;2023-08-21T09:01:43;6.78;;;3.47;;
19543;SDS011;9917;51.256;7.152;2023-08-21T09:04:09;8.30;;;3.90;;
19543;SDS011;9917;51.256;7.152;2023-08-21T09:06:36;6.55;;;3.28;;
19543;SDS011;9917;51.256;7.152;2023-08-21T09:09:02;7.57;;;3.95;;
19543;SDS011;9917;51.256;7.152;2023-08-21T09:11:28;5.47;;;3.20;;
19543;SDS011;9917;51.256;7.152;2023-08-21T09:13:54;9.15;;;4.00;;
19543;SDS011;9917;51.256;7.152;2023-08-21T09:16:21;6.53;;;3.80;;
19543;SDS011;9917;51.256;7.152;2023-08-21T09:18:48;7.07;;;3.72;;
19543;SDS011;9917;51.256;7.152;2023-08-21T09:21:17;5.53;;;3.55;;
19543;SDS011;9917;51.256;7.152;2023-08-21T09:23:45;7.32;;;3.95;;
19543;SDS011;9917;51.256;7.152;2023-08-21T09:26:11;8.70;;;4.32;;
19543;SDS011;9917;51.256;7.152;2023-08-21T09:28:42;6.63;;;3.30;;
19543;SDS011;9917;51.256;7.152;2023-08-21T09:31:08;14.18;;;3.53;;
19543;SDS011;9917;51.256;7.152;2023-08-21T09:33:34;8.48;;;2.72;;
19543;SDS011;9917;51.256;7.152;2023-08-21T09:36:00;3.95;;;2.47;;
19543;SDS011;9917;51.256;7.152;2023-08-21T09:38:26;6.75;;;2.20;;
19543;SDS011;9917;51.256;7.152;2023-08-21T09:40:53;4.82;;;2.72;;
19543;SDS011;9917;51.256;7.152;2023-08-21T09:43:20;7.15;;;2.53;;
19543;SDS011;9917;51.256;7.152;2023-08-21T09:45:46;4.75;;;2.13;;
19543;SDS011;9917;51.256;7.152;2023-08-21T09:48:12;8.00;;;2.28;;
19543;SDS011;9917;51.256;7.152;2023-08-21T09:50:38;8.90;;;2.60;;
19543;SDS011;9917;51.256;7.152;2023-08-21T09:53:05;6.72;;;2.60;;
19543;SDS011;9917;51.256;7.152;2023-08-21T09:55:32;6.45;;;2.53;;
19543;SDS011;9917;51.256;7.152;2023-08-21T09:57:59;6.25;;;2.28;;
19543;SDS011;9917;51.256;7.152;2023-08-21T10:00:26;7.55;;;2.83;;
19543;SDS011;9917;51.256;7.152;2023-08-21T10:02:54;4.63;;;2.65;;
19543;SDS011;9917;51.256;7.152;2023-08-21T10:05:26;3.60;;;2.20;;
19543;SDS011;9917;51.256;7.152;2023-08-21T10:07:52;6.10;;;2.30;;
19543;SDS011;9917;51.256;7.152;2023-08-21T10:10:21;4.85;;;2.22;;
19543;SDS011;9917;51.256;7.152;2023-08-21T10:12:47;5.15;;;2.78;;
19543;SDS011;9917;51.256;7.152;2023-08-21T10:15:15;5.18;;;2.17;;
19543;SDS011;9917;51.256;7.152;2023-08-21T10:17:41;7.20;;;2.70;;
19543;SDS011;9917;51.256;7.152;2023-08-21T10:20:09;6.70;;;2.25;;
19543;SDS011;9917;51.256;7.152;2023-08-21T10:22:42;5.40;;;2.25;;
19543;SDS011;9917;51.256;7.152;2023-08-21T10:25:15;6.60;;;2.70;;
19543;SDS011;9917;51.256;7.152;2023-08-21T10:27:42;9.27;;;2.70;;
19543;SDS011;9917;51.256;7.152;2023-08-21T10:30:12;3.70;;;2.10;;
19543;SDS011;9917;51.256;7.152;2023-08-21T10:32:45;4.40;;;2.45;;
19543;SDS011;9917;51.256;7.152;2023-08-21T10:35:13;2.33;;;1.70;;
19543;SDS011;9917;51.256;7.152;2023-08-21T10:40:34;6.03;;;2.33;;
19543;SDS011;9917;51.256;7.152;2023-08-21T10:43:01;7.22;;;2.60;;
19543;SDS011;9917;51.256;7.152;2023-08-21T10:45:28;6.68;;;2.35;;
19543;SDS011;9917;51.256;7.152;2023-08-21T10:47:56;5.85;;;2.90;;
19543;SDS011;9917;51.256;7.152;2023-08-21T10:50:22;5.25;;;3.20;;
19543;SDS011;9917;51.256;7.152;2023-08-21T10:52:48;11.45;;;4.40;;
19543;SDS011;9917;51.256;7.152;2023-08-21T10:55:17;13.30;;;4.32;;
19543;SDS011;9917;51.256;7.152;2023-08-21T10:57:43;19.02;;;5.50;;
19543;SDS011;9917;51.256;7.152;2023-08-21T11:00:11;12.02;;;3.67;;
19543;SDS011;9917;51.256;7.152;2023-08-21T11:02:39;6.57;;;3.65;;
19543;SDS011;9917;51.256;7.152;2023-08-21T11:05:09;7.50;;;2.60;;
19543;SDS011;9917;51.256;7.152;2023-08-21T11:07:36;6.63;;;2.80;;
19543;SDS011;9917;51.256;7.152;2023-08-21T11:10:03;7.00;;;2.88;;
19543;SDS011;9917;51.256;7.152;2023-08-21T11:12:29;4.47;;;2.50;;
19543;SDS011;9917;51.256;7.152;2023-08-21T11:14:55;5.80;;;3.00;;
19543;SDS011;9917;51.256;7.152;2023-08-21T11:17:21;8.32;;;3.10;;
19543;SDS011;9917;51.256;7.152;2023-08-21T11:19:48;5.93;;;3.45;;
19543;SDS011;9917;51.256;7.152;2023-08-21T11:22:14;7.43;;;3.10;;
19543;SDS011;9917;51.256;7.152;2023-08-21T11:24:40;8.68;;;3.30;;
19543;SDS011;9917;51.256;7.152;2023-08-21T11:27:07;8.82;;;3.90;;
19543;SDS011;9917;51.256;7.152;2023-08-21T11:29:36;8.10;;;3.78;;
19543;SDS011;9917;51.256;7.152;2023-08-21T11:32:02;6.80;;;3.05;;
19543;SDS011;9917;51.256;7.152;2023-08-21T11:34:32;6.75;;;2.83;;
19543;SDS011;9917;51.256;7.152;2023-08-21T11:36:59;8.45;;;2.95;;
19543;SDS011;9917;51.256;7.152;2023-08-21T11:39:25;8.40;;;2.92;;
19543;SDS011;9917;51.256;7.152;2023-08-21T11:41:54;7.28;;;3.00;;
19543;SDS011;9917;51.256;7.152;2023-08-21T11:44:20;6.88;;;3.30;;
19543;SDS011;9917;51.256;7.152;2023-08-21T11:46:46;8.05;;;2.97;;
19543;SDS011;9917;51.256;7.152;2023-08-21T11:49:12;6.63;;;2.78;;
19543;SDS011;9917;51.256;7.152;2023-08-21T11:51:38;8.50;;;3.17;;
19543;SDS011;9917;51.256;7.152;2023-08-21T11:54:05;9.25;;;2.95;;
19543;SDS011;9917;51.256;7.152;2023-08-21T11:56:31;8.35;;;3.08;;
19543;SDS011;9917;51.256;7.152;2023-08-21T11:58:57;5.60;;;3.55;;
19543;SDS011;9917;51.256;7.152;2023-08-21T12:01:23;8.68;;;4.32;;
19543;SDS011;9917;51.256;7.152;2023-08-21T12:03:49;9.07;;;4.05;;
19543;SDS011;9917;51.256;7.152;2023-08-21T12:06:15;16.05;;;5.68;;
19543;SDS011;9917;51.256;7.152;2023-08-21T12:08:41;12.13;;;3.05;;
19543;SDS011;9917;51.256;7.152;2023-08-21T12:11:08;8.57;;;3.10;;
19543;SDS011;9917;51.256;7.152;2023-08-21T12:13:34;8.68;;;2.72;;
19543;SDS011;9917;51.256;7.152;2023-08-21T12:16:00;8.50;;;2.85;;
19543;SDS011;9917;51.256;7.152;2023-08-21T12:18:26;8.82;;;3.47;;
19543;SDS011;9917;51.256;7.152;2023-08-21T12:20:52;7.40;;;3.60;;
19543;SDS011;9917;51.256;7.152;2023-08-21T12:23:18;13.00;;;4.32;;
19543;SDS011;9917;51.256;7.152;2023-08-21T12:25:43;7.82;;;2.53;;
19543;SDS011;9917;51.256;7.152;2023-08-21T12:28:10;6.38;;;2.33;;
19543;SDS011;9917;51.256;7.152;2023-08-21T12:30:36;6.45;;;2.47;;
19543;SDS011;9917;51.256;7.152;2023-08-21T12:33:02;5.80;;;2.75;;
19543;SDS011;9917;51.256;7.152;2023-08-21T12:35:28;5.32;;;2.40;;
19543;SDS011;9917;51.256;7.152;2023-08-21T12:37:56;7.13;;;2.58;;
19543;SDS011;9917;51.256;7.152;2023-08-21T12:40:22;4.82;;;1.77;;
19543;SDS011;9917;51.256;7.152;2023-08-21T12:42:48;7.95;;;2.08;;
19543;SDS011;9917;51.256;7.152;2023-08-21T12:45:15;4.97;;;1.63;;
19543;SDS011;9917;51.256;7.152;2023-08-21T12:47:41;5.13;;;1.73;;
19543;SDS011;9917;51.256;7.152;2023-08-21T12:50:07;4.63;;;1.55;;
19543;SDS011;9917;51.256;7.152;2023-08-21T12:52:33;4.78;;;1.63;;
19543;SDS011;9917;51.256;7.152;2023-08-21T12:54:59;5.65;;;1.85;;
19543;SDS011;9917;51.256;7.152;2023-08-21T12:57:25;5.20;;;1.73;;
19543;SDS011;9917;51.256;7.152;2023-08-21T12:59:51;6.05;;;1.98;;
19543;SDS011;9917;51.256;7.152;2023-08-21T13:02:18;3.85;;;1.83;;
19543;SDS011;9917;51.256;7.152;2023-08-21T13:04:44;5.68;;;1.92;;
19543;SDS011;9917;51.256;7.152;2023-08-21T13:07:09;6.32;;;1.83;;
19543;SDS011;9917;51.256;7.152;2023-08-21T13:09:35;5.40;;;1.70;;
19543;SDS011;9917;51.256;7.152;2023-08-21T13:12:01;6.07;;;1.40;;
19543;SDS011;9917;51.256;7.152;2023-08-21T13:14:27;3.80;;;1.35;;
19543;SDS011;9917;51.256;7.152;2023-08-21T13:16:53;5.30;;;1.73;;
19543;SDS011;9917;51.256;7.152;2023-08-21T13:19:20;3.42;;;1.38;;
19543;SDS011;9917;51.256;7.152;2023-08-21T13:21:46;7.22;;;3.72;;
19543;SDS011;9917;51.256;7.152;2023-08-21T13:24:12;4.63;;;1.83;;
19543;SDS011;9917;51.256;7.152;2023-08-21T13:26:38;3.05;;;1.55;;
19543;SDS011;9917;51.256;7.152;2023-08-21T13:29:04;5.72;;;1.40;;
19543;SDS011;9917;51.256;7.152;2023-08-21T13:31:30;4.80;;;1.35;;
19543;SDS011;9917;51.256;7.152;2023-08-21T13:33:56;4.20;;;1.40;;
19543;SDS011;9917;51.256;7.152;2023-08-21T13:36:23;6.07;;;1.30;;
19543;SDS011;9917;51.256;7.152;2023-08-21T13:38:49;5.43;;;1.75;;
19543;SDS011;9917;51.256;7.152;2023-08-21T13:41:15;3.72;;;1.38;;
19543;SDS011;9917;51.256;7.152;2023-08-21T13:43:41;3.13;;;1.45;;
19543;SDS011;9917;51.256;7.152;2023-08-21T13:46:07;3.63;;;1.55;;
19543;SDS011;9917;51.256;7.152;2023-08-21T13:48:33;4.60;;;1.25;;
19543;SDS011;9917;51.256;7.152;2023-08-21T13:50:59;4.55;;;1.40;;
19543;SDS011;9917;51.256;7.152;2023-08-21T13:53:26;3.08;;;1.15;;
19543;SDS011;9917;51.256;7.152;2023-08-21T13:55:51;5.75;;;1.98;;
19543;SDS011;9917;51.256;7.152;2023-08-21T13:58:17;5.32;;;1.50;;
19543;SDS011;9917;51.256;7.152;2023-08-21T14:00:43;4.60;;;1.27;;
19543;SDS011;9917;51.256;7.152;2023-08-21T14:03:09;4.43;;;1.40;;
19543;SDS011;9917;51.256;7.152;2023-08-21T14:05:35;4.30;;;1.17;;
19543;SDS011;9917;51.256;7.152;2023-08-21T14:08:02;8.13;;;1.80;;
19543;SDS011;9917;51.256;7.152;2023-08-21T14:10:29;6.50;;;1.40;;
19543;SDS011;9917;51.256;7.152;2023-08-21T14:12:55;3.92;;;1.45;;
19543;SDS011;9917;51.256;7.152;2023-08-21T14:15:21;4.57;;;2.00;;
19543;SDS011;9917;51.256;7.152;2023-08-21T14:17:47;3.42;;;1.17;;
19543;SDS011;9917;51.256;7.152;2023-08-21T14:20:13;4.05;;;1.40;;
19543;SDS011;9917;51.256;7.152;2023-08-21T14:22:39;2.40;;;1.23;;
19543;SDS011;9917;51.256;7.152;2023-08-21T14:25:05;3.92;;;1.13;;
19543;SDS011;9917;51.256;7.152;2023-08-21T14:27:32;5.60;;;1.10;;
19543;SDS011;9917;51.256;7.152;2023-08-21T14:29:58;4.95;;;1.20;;
19543;SDS011;9917;51.256;7.152;2023-08-21T14:32:24;5.88;;;1.70;;
19543;SDS011;9917;51.256;7.152;2023-08-21T14:34:50;6.10;;;1.55;;
19543;SDS011;9917;51.256;7.152;2023-08-21T14:37:16;3.70;;;1.30;;
19543;SDS011;9917;51.256;7.152;2023-08-21T14:39:42;4.10;;;1.30;;
19543;SDS011;9917;51.256;7.152;2023-08-21T14:42:08;2.85;;;1.02;;
19543;SDS011;9917;51.256;7.152;2023-08-21T14:44:35;5.53;;;1.50;;
19543;SDS011;9917;51.256;7.152;2023-08-21T14:47:01;3.63;;;1.15;;
19543;SDS011;9917;51.256;7.152;2023-08-21T14:49:27;5.57;;;1.30;;
19543;SDS011;9917;51.256;7.152;2023-08-21T14:51:53;4.45;;;1.35;;
19543;SDS011;9917;51.256;7.152;2023-08-21T14:54:19;3.95;;;1.52;;
19543;SDS011;9917;51.256;7.152;2023-08-21T14:56:45;3.97;;;1.25;;
19543;SDS011;9917;51.256;7.152;2023-08-21T14:59:12;5.90;;;1.60;;
19543;SDS011;9917;51.256;7.152;2023-08-21T15:01:39;3.30;;;1.50;;